Track Семенова Кристина

Time Latitude Longitude Accuracy (66% radius in meters) Altitude (meters) Speed (km/hour) Bearing (degrees) Battery (%) GPS flag
06:46:13 57.203893 60.118381 0 0 0 0 1 delete
06:46:12 57.203901 60.118355 0 0 0 0 1 delete
06:46:11 57.203908 60.118331 0 0 0 0 1 delete
06:46:10 57.203917 60.118307 0 0 0 0 1 delete
06:46:09 57.203926 60.118281 0 0 0 0 1 delete
06:46:08 57.203938 60.118256 0 0 0 0 1 delete
06:46:07 57.203949 60.118235 0 0 0 0 1 delete
06:46:06 57.203959 60.118213 0 0 0 0 1 delete
06:46:05 57.203967 60.118195 0 0 0 0 1 delete
06:46:04 57.203970 60.118179 0 0 0 0 1 delete
06:46:03 57.203973 60.118168 0 0 0 0 1 delete
06:46:02 57.203986 60.118147 0 0 0 0 1 delete
06:46:01 57.204008 60.118122 0 0 0 0 1 delete
06:46:00 57.204032 60.118088 0 0 0 0 1 delete
06:45:59 57.204054 60.118052 0 0 0 0 1 delete
06:45:58 57.204074 60.118013 0 0 0 0 1 delete
06:45:57 57.204096 60.117974 0 0 0 0 1 delete
06:45:56 57.204120 60.117936 0 0 0 0 1 delete
06:45:55 57.204145 60.117898 0 0 0 0 1 delete
06:45:54 57.204170 60.117858 0 0 0 0 1 delete
06:45:53 57.204197 60.117816 0 0 0 0 1 delete
06:45:52 57.204224 60.117777 0 0 0 0 1 delete
06:45:51 57.204249 60.117742 0 0 0 0 1 delete
06:45:50 57.204274 60.117710 0 0 0 0 1 delete
06:45:49 57.204299 60.117679 0 0 0 0 1 delete
06:45:48 57.204326 60.117649 0 0 0 0 1 delete
06:45:47 57.204354 60.117618 0 0 0 0 1 delete
06:45:46 57.204383 60.117590 0 0 0 0 1 delete
06:45:45 57.204417 60.117558 0 0 0 0 1 delete
06:45:44 57.204455 60.117527 0 0 0 0 1 delete
06:45:43 57.204495 60.117501 0 0 0 0 1 delete
06:45:42 57.204535 60.117485 0 0 0 0 1 delete
06:45:41 57.204576 60.117477 0 0 0 0 1 delete
06:45:40 57.204616 60.117473 0 0 0 0 1 delete
06:45:39 57.204657 60.117474 0 0 0 0 1 delete
06:45:38 57.204697 60.117479 0 0 0 0 1 delete
06:45:37 57.204738 60.117486 0 0 0 0 1 delete
06:45:36 57.204778 60.117494 0 0 0 0 1 delete
06:45:35 57.204824 60.117508 0 0 0 0 1 delete
06:45:34 57.204871 60.117527 0 0 0 0 1 delete
06:45:33 57.204915 60.117543 0 0 0 0 1 delete
06:45:32 57.204953 60.117556 0 0 0 0 1 delete
06:45:31 57.204988 60.117561 0 0 0 0 1 delete
06:45:30 57.205023 60.117569 0 0 0 0 1 delete
06:45:29 57.205057 60.117576 0 0 0 0 1 delete
06:45:28 57.205084 60.117585 0 0 0 0 1 delete
06:45:27 57.205107 60.117594 0 0 0 0 1 delete
06:45:26 57.205126 60.117606 0 0 0 0 1 delete
06:45:25 57.205142 60.117621 0 0 0 0 1 delete
06:45:24 57.205154 60.117635 0 0 0 0 1 delete